sensor_id;sensor_type;location;lat;lon;timestamp;P1;durP1;ratioP1;P2;durP2;ratioP2
36415;SDS011;22447;44.530;18.620;2022-09-09T00:00:24;26.70;;;12.63;;
36415;SDS011;22447;44.530;18.620;2022-09-09T00:03:12;21.77;;;11.57;;
36415;SDS011;22447;44.530;18.620;2022-09-09T00:05:49;26.90;;;12.35;;
36415;SDS011;22447;44.530;18.620;2022-09-09T00:08:41;22.05;;;12.38;;
36415;SDS011;22447;44.530;18.620;2022-09-09T00:14:18;25.67;;;13.10;;
36415;SDS011;22447;44.530;18.620;2022-09-09T00:17:01;21.85;;;12.80;;
36415;SDS011;22447;44.530;18.620;2022-09-09T00:19:40;19.35;;;12.57;;
36415;SDS011;22447;44.530;18.620;2022-09-09T00:22:19;22.85;;;12.40;;
36415;SDS011;22447;44.530;18.620;2022-09-09T00:24:54;22.58;;;12.20;;
36415;SDS011;22447;44.530;18.620;2022-09-09T00:27:58;23.48;;;12.63;;
36415;SDS011;22447;44.530;18.620;2022-09-09T00:32:49;22.15;;;12.07;;
36415;SDS011;22447;44.530;18.620;2022-09-09T00:35:41;26.40;;;13.45;;
36415;SDS011;22447;44.530;18.620;2022-09-09T00:38:13;22.02;;;12.23;;
36415;SDS011;22447;44.530;18.620;2022-09-09T00:40:53;28.10;;;11.95;;
36415;SDS011;22447;44.530;18.620;2022-09-09T00:43:31;27.00;;;11.90;;
36415;SDS011;22447;44.530;18.620;2022-09-09T00:51:35;24.67;;;11.68;;
36415;SDS011;22447;44.530;18.620;2022-09-09T00:57:07;24.13;;;12.85;;
36415;SDS011;22447;44.530;18.620;2022-09-09T01:02:27;28.30;;;13.00;;
36415;SDS011;22447;44.530;18.620;2022-09-09T01:05:13;21.55;;;13.45;;
36415;SDS011;22447;44.530;18.620;2022-09-09T01:07:55;22.67;;;12.40;;
36415;SDS011;22447;44.530;18.620;2022-09-09T01:10:41;30.40;;;12.10;;
36415;SDS011;22447;44.530;18.620;2022-09-09T01:13:19;22.83;;;12.00;;
36415;SDS011;22447;44.530;18.620;2022-09-09T01:16:04;28.20;;;13.57;;
36415;SDS011;22447;44.530;18.620;2022-09-09T01:18:38;22.77;;;12.18;;
36415;SDS011;22447;44.530;18.620;2022-09-09T01:27:05;21.85;;;12.30;;
36415;SDS011;22447;44.530;18.620;2022-09-09T01:29:33;19.00;;;12.93;;
36415;SDS011;22447;44.530;18.620;2022-09-09T01:32:35;18.40;;;12.52;;
36415;SDS011;22447;44.530;18.620;2022-09-09T01:35:12;21.67;;;12.45;;
36415;SDS011;22447;44.530;18.620;2022-09-09T01:37:56;23.52;;;12.50;;
36415;SDS011;22447;44.530;18.620;2022-09-09T01:40:22;28.63;;;13.45;;
36415;SDS011;22447;44.530;18.620;2022-09-09T01:42:51;25.65;;;13.35;;
36415;SDS011;22447;44.530;18.620;2022-09-09T01:45:18;27.15;;;13.98;;
36415;SDS011;22447;44.530;18.620;2022-09-09T01:47:44;22.92;;;13.48;;
36415;SDS011;22447;44.530;18.620;2022-09-09T01:50:31;25.48;;;13.68;;
36415;SDS011;22447;44.530;18.620;2022-09-09T01:52:58;25.98;;;13.90;;
36415;SDS011;22447;44.530;18.620;2022-09-09T01:55:30;21.80;;;13.98;;
36415;SDS011;22447;44.530;18.620;2022-09-09T02:00:45;22.67;;;14.90;;
36415;SDS011;22447;44.530;18.620;2022-09-09T02:03:23;25.92;;;13.63;;
36415;SDS011;22447;44.530;18.620;2022-09-09T02:06:02;28.77;;;14.55;;
36415;SDS011;22447;44.530;18.620;2022-09-09T02:08:43;32.33;;;14.65;;
36415;SDS011;22447;44.530;18.620;2022-09-09T02:11:14;29.13;;;14.02;;
36415;SDS011;22447;44.530;18.620;2022-09-09T02:13:52;25.77;;;15.15;;
36415;SDS011;22447;44.530;18.620;2022-09-09T02:19:18;30.25;;;15.45;;
36415;SDS011;22447;44.530;18.620;2022-09-09T02:22:11;29.15;;;16.30;;
36415;SDS011;22447;44.530;18.620;2022-09-09T02:24:37;27.52;;;15.10;;
36415;SDS011;22447;44.530;18.620;2022-09-09T02:27:12;31.05;;;16.63;;
36415;SDS011;22447;44.530;18.620;2022-09-09T02:29:42;27.23;;;15.52;;
36415;SDS011;22447;44.530;18.620;2022-09-09T02:32:11;25.30;;;15.65;;
36415;SDS011;22447;44.530;18.620;2022-09-09T02:34:44;26.17;;;15.23;;
36415;SDS011;22447;44.530;18.620;2022-09-09T02:37:13;31.02;;;16.45;;
36415;SDS011;22447;44.530;18.620;2022-09-09T02:39:47;29.48;;;15.48;;
36415;SDS011;22447;44.530;18.620;2022-09-09T02:42:17;28.17;;;15.90;;
36415;SDS011;22447;44.530;18.620;2022-09-09T02:44:43;32.05;;;17.55;;
36415;SDS011;22447;44.530;18.620;2022-09-09T02:55:38;42.60;;;21.83;;
36415;SDS011;22447;44.530;18.620;2022-09-09T02:58:10;44.70;;;23.00;;
36415;SDS011;22447;44.530;18.620;2022-09-09T03:00:45;37.60;;;21.85;;
36415;SDS011;22447;44.530;18.620;2022-09-09T03:03:12;37.28;;;19.95;;
36415;SDS011;22447;44.530;18.620;2022-09-09T03:05:39;41.80;;;21.88;;
36415;SDS011;22447;44.530;18.620;2022-09-09T03:08:06;38.85;;;21.30;;
36415;SDS011;22447;44.530;18.620;2022-09-09T03:10:32;39.67;;;20.77;;
36415;SDS011;22447;44.530;18.620;2022-09-09T03:12:58;40.38;;;21.98;;
36415;SDS011;22447;44.530;18.620;2022-09-09T03:15:28;45.13;;;22.25;;
36415;SDS011;22447;44.530;18.620;2022-09-09T03:17:57;51.50;;;24.60;;
36415;SDS011;22447;44.530;18.620;2022-09-09T03:20:25;53.33;;;25.90;;
36415;SDS011;22447;44.530;18.620;2022-09-09T03:22:55;50.05;;;23.80;;
36415;SDS011;22447;44.530;18.620;2022-09-09T03:25:22;42.73;;;23.77;;
36415;SDS011;22447;44.530;18.620;2022-09-09T03:30:21;42.53;;;22.98;;
36415;SDS011;22447;44.530;18.620;2022-09-09T03:32:48;46.47;;;23.95;;
36415;SDS011;22447;44.530;18.620;2022-09-09T03:35:15;39.47;;;22.83;;
36415;SDS011;22447;44.530;18.620;2022-09-09T03:37:41;42.28;;;23.70;;
36415;SDS011;22447;44.530;18.620;2022-09-09T03:40:09;42.13;;;24.65;;
36415;SDS011;22447;44.530;18.620;2022-09-09T03:42:36;40.65;;;22.40;;
36415;SDS011;22447;44.530;18.620;2022-09-09T03:45:04;42.47;;;23.80;;
36415;SDS011;22447;44.530;18.620;2022-09-09T03:47:32;39.42;;;21.60;;
36415;SDS011;22447;44.530;18.620;2022-09-09T03:50:04;41.83;;;22.13;;
36415;SDS011;22447;44.530;18.620;2022-09-09T03:52:34;43.15;;;23.90;;
36415;SDS011;22447;44.530;18.620;2022-09-09T03:55:02;43.75;;;24.30;;
36415;SDS011;22447;44.530;18.620;2022-09-09T03:57:29;42.88;;;25.17;;
36415;SDS011;22447;44.530;18.620;2022-09-09T03:59:57;41.05;;;24.05;;
36415;SDS011;22447;44.530;18.620;2022-09-09T04:02:30;42.03;;;23.10;;
36415;SDS011;22447;44.530;18.620;2022-09-09T04:04:56;35.17;;;21.50;;
36415;SDS011;22447;44.530;18.620;2022-09-09T04:07:22;38.22;;;21.13;;
36415;SDS011;22447;44.530;18.620;2022-09-09T04:09:48;39.90;;;22.20;;
36415;SDS011;22447;44.530;18.620;2022-09-09T04:12:14;31.73;;;20.08;;
36415;SDS011;22447;44.530;18.620;2022-09-09T04:14:41;33.58;;;19.98;;
36415;SDS011;22447;44.530;18.620;2022-09-09T04:17:07;38.78;;;22.73;;
36415;SDS011;22447;44.530;18.620;2022-09-09T04:19:33;34.00;;;21.83;;
36415;SDS011;22447;44.530;18.620;2022-09-09T04:22:00;35.92;;;22.60;;
36415;SDS011;22447;44.530;18.620;2022-09-09T04:24:26;35.05;;;20.98;;
36415;SDS011;22447;44.530;18.620;2022-09-09T04:26:55;35.45;;;20.98;;
36415;SDS011;22447;44.530;18.620;2022-09-09T04:29:21;30.80;;;20.48;;
36415;SDS011;22447;44.530;18.620;2022-09-09T04:31:47;31.17;;;20.70;;
36415;SDS011;22447;44.530;18.620;2022-09-09T04:34:13;34.10;;;20.23;;
36415;SDS011;22447;44.530;18.620;2022-09-09T04:36:40;34.50;;;20.60;;
36415;SDS011;22447;44.530;18.620;2022-09-09T04:39:06;34.72;;;21.30;;
36415;SDS011;22447;44.530;18.620;2022-09-09T04:41:32;38.05;;;22.30;;
36415;SDS011;22447;44.530;18.620;2022-09-09T04:43:58;39.92;;;22.27;;
36415;SDS011;22447;44.530;18.620;2022-09-09T04:46:26;36.88;;;20.52;;
36415;SDS011;22447;44.530;18.620;2022-09-09T04:48:52;34.83;;;21.40;;
36415;SDS011;22447;44.530;18.620;2022-09-09T04:51:20;32.10;;;18.30;;
36415;SDS011;22447;44.530;18.620;2022-09-09T04:53:48;32.63;;;19.73;;
36415;SDS011;22447;44.530;18.620;2022-09-09T04:56:16;34.63;;;18.50;;
36415;SDS011;22447;44.530;18.620;2022-09-09T04:58:52;28.73;;;18.25;;
36415;SDS011;22447;44.530;18.620;2022-09-09T05:01:21;33.55;;;18.67;;
36415;SDS011;22447;44.530;18.620;2022-09-09T05:03:50;30.92;;;18.25;;
36415;SDS011;22447;44.530;18.620;2022-09-09T05:06:21;32.35;;;17.92;;
36415;SDS011;22447;44.530;18.620;2022-09-09T05:08:50;33.13;;;17.67;;
36415;SDS011;22447;44.530;18.620;2022-09-09T05:11:20;28.73;;;16.50;;
36415;SDS011;22447;44.530;18.620;2022-09-09T05:13:54;29.33;;;17.17;;
36415;SDS011;22447;44.530;18.620;2022-09-09T05:16:21;27.52;;;17.08;;
36415;SDS011;22447;44.530;18.620;2022-09-09T05:18:48;26.73;;;16.88;;
36415;SDS011;22447;44.530;18.620;2022-09-09T05:21:17;29.85;;;17.00;;
36415;SDS011;22447;44.530;18.620;2022-09-09T05:23:44;26.65;;;16.92;;
36415;SDS011;22447;44.530;18.620;2022-09-09T05:26:13;30.75;;;17.23;;
36415;SDS011;22447;44.530;18.620;2022-09-09T05:28:46;28.15;;;17.58;;
36415;SDS011;22447;44.530;18.620;2022-09-09T05:31:13;30.25;;;17.55;;
36415;SDS011;22447;44.530;18.620;2022-09-09T05:33:43;27.92;;;17.95;;
36415;SDS011;22447;44.530;18.620;2022-09-09T05:36:16;26.48;;;17.35;;
36415;SDS011;22447;44.530;18.620;2022-09-09T05:38:45;26.20;;;17.45;;
36415;SDS011;22447;44.530;18.620;2022-09-09T05:41:14;36.50;;;18.45;;
36415;SDS011;22447;44.530;18.620;2022-09-09T05:43:41;28.73;;;17.05;;
36415;SDS011;22447;44.530;18.620;2022-09-09T05:46:11;25.67;;;17.38;;
36415;SDS011;22447;44.530;18.620;2022-09-09T05:48:43;31.40;;;19.52;;
36415;SDS011;22447;44.530;18.620;2022-09-09T05:51:14;30.13;;;18.23;;
36415;SDS011;22447;44.530;18.620;2022-09-09T05:53:43;28.23;;;16.40;;
36415;SDS011;22447;44.530;18.620;2022-09-09T05:56:20;30.13;;;16.55;;
36415;SDS011;22447;44.530;18.620;2022-09-09T05:58:49;25.15;;;15.65;;
36415;SDS011;22447;44.530;18.620;2022-09-09T06:01:18;23.75;;;15.95;;
36415;SDS011;22447;44.530;18.620;2022-09-09T06:03:47;27.83;;;15.50;;
36415;SDS011;22447;44.530;18.620;2022-09-09T06:06:15;30.48;;;15.60;;
36415;SDS011;22447;44.530;18.620;2022-09-09T06:08:54;22.60;;;16.08;;
36415;SDS011;22447;44.530;18.620;2022-09-09T06:11:25;32.85;;;16.70;;
36415;SDS011;22447;44.530;18.620;2022-09-09T06:13:58;24.17;;;15.80;;
36415;SDS011;22447;44.530;18.620;2022-09-09T06:16:25;30.77;;;18.50;;
36415;SDS011;22447;44.530;18.620;2022-09-09T06:18:56;32.65;;;18.77;;
36415;SDS011;22447;44.530;18.620;2022-09-09T06:21:24;27.67;;;17.48;;
36415;SDS011;22447;44.530;18.620;2022-09-09T06:23:52;28.92;;;16.25;;
36415;SDS011;22447;44.530;18.620;2022-09-09T06:26:20;26.23;;;16.13;;
36415;SDS011;22447;44.530;18.620;2022-09-09T06:28:52;23.35;;;14.82;;
36415;SDS011;22447;44.530;18.620;2022-09-09T06:31:21;29.35;;;15.52;;
36415;SDS011;22447;44.530;18.620;2022-09-09T06:33:50;30.27;;;15.05;;
36415;SDS011;22447;44.530;18.620;2022-09-09T06:36:18;31.67;;;15.90;;
36415;SDS011;22447;44.530;18.620;2022-09-09T06:38:46;33.83;;;15.15;;
36415;SDS011;22447;44.530;18.620;2022-09-09T06:41:14;22.63;;;13.77;;
36415;SDS011;22447;44.530;18.620;2022-09-09T06:43:43;27.25;;;15.57;;
36415;SDS011;22447;44.530;18.620;2022-09-09T06:46:12;26.50;;;14.73;;
36415;SDS011;22447;44.530;18.620;2022-09-09T06:48:40;44.05;;;17.65;;
36415;SDS011;22447;44.530;18.620;2022-09-09T06:51:13;36.15;;;15.52;;
36415;SDS011;22447;44.530;18.620;2022-09-09T06:53:49;31.38;;;15.70;;
36415;SDS011;22447;44.530;18.620;2022-09-09T06:58:55;39.35;;;17.95;;
36415;SDS011;22447;44.530;18.620;2022-09-09T07:01:28;32.92;;;15.30;;
36415;SDS011;22447;44.530;18.620;2022-09-09T07:03:58;36.67;;;15.93;;
36415;SDS011;22447;44.530;18.620;2022-09-09T07:06:27;31.13;;;15.90;;
36415;SDS011;22447;44.530;18.620;2022-09-09T07:08:57;27.52;;;13.27;;
36415;SDS011;22447;44.530;18.620;2022-09-09T07:11:30;27.47;;;14.87;;
36415;SDS011;22447;44.530;18.620;2022-09-09T07:13:59;23.98;;;14.55;;
36415;SDS011;22447;44.530;18.620;2022-09-09T07:16:26;23.05;;;12.43;;
36415;SDS011;22447;44.530;18.620;2022-09-09T07:21:23;30.15;;;13.40;;
36415;SDS011;22447;44.530;18.620;2022-09-09T07:23:52;32.67;;;12.95;;
36415;SDS011;22447;44.530;18.620;2022-09-09T07:26:20;29.83;;;13.57;;
36415;SDS011;22447;44.530;18.620;2022-09-09T07:28:48;31.05;;;13.80;;
36415;SDS011;22447;44.530;18.620;2022-09-09T07:31:18;26.20;;;12.63;;
36415;SDS011;22447;44.530;18.620;2022-09-09T07:33:50;20.05;;;11.98;;
36415;SDS011;22447;44.530;18.620;2022-09-09T07:36:23;26.13;;;11.68;;
36415;SDS011;22447;44.530;18.620;2022-09-09T07:38:53;23.08;;;11.32;;
36415;SDS011;22447;44.530;18.620;2022-09-09T07:41:27;28.97;;;12.63;;
36415;SDS011;22447;44.530;18.620;2022-09-09T07:43:55;23.00;;;11.15;;
36415;SDS011;22447;44.530;18.620;2022-09-09T07:46:23;22.45;;;9.98;;
36415;SDS011;22447;44.530;18.620;2022-09-09T07:48:52;22.23;;;11.73;;
36415;SDS011;22447;44.530;18.620;2022-09-09T07:51:26;30.10;;;13.88;;
36415;SDS011;22447;44.530;18.620;2022-09-09T07:53:58;24.75;;;11.48;;
36415;SDS011;22447;44.530;18.620;2022-09-09T07:56:31;18.30;;;10.38;;
36415;SDS011;22447;44.530;18.620;2022-09-09T07:58:58;23.50;;;11.15;;
36415;SDS011;22447;44.530;18.620;2022-09-09T08:01:26;23.50;;;12.07;;
36415;SDS011;22447;44.530;18.620;2022-09-09T08:03:55;27.00;;;11.20;;
36415;SDS011;22447;44.530;18.620;2022-09-09T08:06:29;21.70;;;11.18;;
36415;SDS011;22447;44.530;18.620;2022-09-09T08:09:01;27.63;;;10.93;;
36415;SDS011;22447;44.530;18.620;2022-09-09T08:11:28;21.73;;;12.00;;
36415;SDS011;22447;44.530;18.620;2022-09-09T08:13:55;20.48;;;9.02;;
36415;SDS011;22447;44.530;18.620;2022-09-09T08:16:26;19.02;;;10.55;;
36415;SDS011;22447;44.530;18.620;2022-09-09T08:18:58;23.02;;;10.02;;
36415;SDS011;22447;44.530;18.620;2022-09-09T08:21:25;22.48;;;11.07;;
36415;SDS011;22447;44.530;18.620;2022-09-09T08:23:54;14.77;;;8.25;;
36415;SDS011;22447;44.530;18.620;2022-09-09T08:26:22;15.43;;;8.15;;
36415;SDS011;22447;44.530;18.620;2022-09-09T08:28:51;23.48;;;9.07;;
36415;SDS011;22447;44.530;18.620;2022-09-09T08:31:22;26.90;;;9.32;;
36415;SDS011;22447;44.530;18.620;2022-09-09T08:33:50;18.52;;;9.43;;
36415;SDS011;22447;44.530;18.620;2022-09-09T08:36:20;16.30;;;7.10;;
36415;SDS011;22447;44.530;18.620;2022-09-09T08:38:50;14.10;;;7.00;;
36415;SDS011;22447;44.530;18.620;2022-09-09T08:50:24;14.63;;;7.10;;
36415;SDS011;22447;44.530;18.620;2022-09-09T08:57:57;11.98;;;7.10;;
36415;SDS011;22447;44.530;18.620;2022-09-09T09:00:29;14.95;;;7.35;;
36415;SDS011;22447;44.530;18.620;2022-09-09T09:03:24;11.05;;;6.82;;
36415;SDS011;22447;44.530;18.620;2022-09-09T09:19:33;18.40;;;7.82;;
36415;SDS011;22447;44.530;18.620;2022-09-09T09:30:33;9.55;;;6.10;;
36415;SDS011;22447;44.530;18.620;2022-09-09T09:36:07;11.73;;;5.18;;
36415;SDS011;22447;44.530;18.620;2022-09-09T09:38:35;11.73;;;6.20;;
36415;SDS011;22447;44.530;18.620;2022-09-09T09:41:02;11.52;;;5.30;;
36415;SDS011;22447;44.530;18.620;2022-09-09T09:43:39;12.73;;;5.50;;
36415;SDS011;22447;44.530;18.620;2022-09-09T09:46:19;10.32;;;5.32;;
36415;SDS011;22447;44.530;18.620;2022-09-09T09:49:03;9.95;;;5.47;;
36415;SDS011;22447;44.530;18.620;2022-09-09T09:51:32;11.52;;;5.35;;
36415;SDS011;22447;44.530;18.620;2022-09-09T09:54:17;7.95;;;4.95;;
36415;SDS011;22447;44.530;18.620;2022-09-09T09:56:55;10.88;;;5.53;;
36415;SDS011;22447;44.530;18.620;2022-09-09T09:59:33;12.57;;;5.15;;
36415;SDS011;22447;44.530;18.620;2022-09-09T10:04:37;16.90;;;6.85;;
36415;SDS011;22447;44.530;18.620;2022-09-09T10:07:19;14.93;;;6.25;;
36415;SDS011;22447;44.530;18.620;2022-09-09T10:09:49;11.45;;;4.90;;
36415;SDS011;22447;44.530;18.620;2022-09-09T10:15:30;14.30;;;5.50;;
36415;SDS011;22447;44.530;18.620;2022-09-09T10:26:27;9.82;;;5.60;;
36415;SDS011;22447;44.530;18.620;2022-09-09T10:31:53;9.80;;;5.18;;
36415;SDS011;22447;44.530;18.620;2022-09-09T10:38:05;15.15;;;6.03;;
36415;SDS011;22447;44.530;18.620;2022-09-09T10:57:06;11.00;;;3.70;;
36415;SDS011;22447;44.530;18.620;2022-09-09T10:59:50;13.43;;;4.70;;
36415;SDS011;22447;44.530;18.620;2022-09-09T11:02:28;6.75;;;4.97;;
36415;SDS011;22447;44.530;18.620;2022-09-09T11:13:24;16.17;;;5.80;;
36415;SDS011;22447;44.530;18.620;2022-09-09T11:19:03;17.95;;;7.88;;
36415;SDS011;22447;44.530;18.620;2022-09-09T11:21:46;15.13;;;6.55;;
36415;SDS011;22447;44.530;18.620;2022-09-09T11:26:50;16.85;;;7.10;;
36415;SDS011;22447;44.530;18.620;2022-09-09T11:43:01;16.90;;;7.50;;
36415;SDS011;22447;44.530;18.620;2022-09-09T11:45:29;11.43;;;7.35;;
36415;SDS011;22447;44.530;18.620;2022-09-09T11:47:56;22.38;;;8.18;;
36415;SDS011;22447;44.530;18.620;2022-09-09T11:52:49;16.92;;;5.68;;
36415;SDS011;22447;44.530;18.620;2022-09-09T11:55:36;13.88;;;5.80;;
36415;SDS011;22447;44.530;18.620;2022-09-09T11:58:06;13.70;;;6.60;;
36415;SDS011;22447;44.530;18.620;2022-09-09T12:00:45;20.42;;;7.03;;
36415;SDS011;22447;44.530;18.620;2022-09-09T12:06:08;8.27;;;5.13;;
36415;SDS011;22447;44.530;18.620;2022-09-09T12:08:39;18.10;;;6.03;;
36415;SDS011;22447;44.530;18.620;2022-09-09T12:11:08;12.95;;;5.53;;
36415;SDS011;22447;44.530;18.620;2022-09-09T12:13:34;11.25;;;5.20;;
36415;SDS011;22447;44.530;18.620;2022-09-09T12:16:01;7.20;;;5.07;;
36415;SDS011;22447;44.530;18.620;2022-09-09T12:18:36;11.48;;;5.97;;
36415;SDS011;22447;44.530;18.620;2022-09-09T12:26:42;10.52;;;5.35;;
36415;SDS011;22447;44.530;18.620;2022-09-09T12:32:11;17.00;;;6.22;;
36415;SDS011;22447;44.530;18.620;2022-09-09T12:34:52;31.67;;;7.28;;
36415;SDS011;22447;44.530;18.620;2022-09-09T12:40:24;12.57;;;5.43;;
36415;SDS011;22447;44.530;18.620;2022-09-09T12:42:57;14.93;;;4.97;;
36415;SDS011;22447;44.530;18.620;2022-09-09T12:45:28;14.05;;;5.20;;
36415;SDS011;22447;44.530;18.620;2022-09-09T12:47:57;16.73;;;5.78;;
36415;SDS011;22447;44.530;18.620;2022-09-09T12:53:30;11.13;;;4.97;;
36415;SDS011;22447;44.530;18.620;2022-09-09T12:56:06;8.43;;;4.60;;
36415;SDS011;22447;44.530;18.620;2022-09-09T12:58:38;13.63;;;4.70;;
36415;SDS011;22447;44.530;18.620;2022-09-09T13:01:05;6.00;;;4.13;;
36415;SDS011;22447;44.530;18.620;2022-09-09T13:03:43;18.30;;;5.80;;
36415;SDS011;22447;44.530;18.620;2022-09-09T13:06:11;17.10;;;5.32;;
36415;SDS011;22447;44.530;18.620;2022-09-09T13:08:48;7.53;;;4.55;;
36415;SDS011;22447;44.530;18.620;2022-09-09T13:11:16;13.65;;;4.40;;
36415;SDS011;22447;44.530;18.620;2022-09-09T13:13:54;17.02;;;6.28;;
36415;SDS011;22447;44.530;18.620;2022-09-09T13:16:23;17.00;;;6.32;;
36415;SDS011;22447;44.530;18.620;2022-09-09T13:18:57;10.18;;;4.30;;
36415;SDS011;22447;44.530;18.620;2022-09-09T13:21:35;10.95;;;4.72;;
36415;SDS011;22447;44.530;18.620;2022-09-09T13:27:02;5.20;;;3.05;;
36415;SDS011;22447;44.530;18.620;2022-09-09T13:29:50;12.38;;;4.65;;
36415;SDS011;22447;44.530;18.620;2022-09-09T13:32:20;15.02;;;4.57;;
36415;SDS011;22447;44.530;18.620;2022-09-09T13:35:22;12.02;;;4.28;;
36415;SDS011;22447;44.530;18.620;2022-09-09T13:37:48;8.73;;;4.35;;
36415;SDS011;22447;44.530;18.620;2022-09-09T13:40:18;10.13;;;4.15;;
36415;SDS011;22447;44.530;18.620;2022-09-09T13:42:54;12.40;;;4.18;;
36415;SDS011;22447;44.530;18.620;2022-09-09T13:45:23;8.45;;;3.78;;
36415;SDS011;22447;44.530;18.620;2022-09-09T13:47:52;6.93;;;3.72;;
36415;SDS011;22447;44.530;18.620;2022-09-09T13:50:27;13.93;;;3.72;;
36415;SDS011;22447;44.530;18.620;2022-09-09T13:52:55;9.23;;;3.25;;
36415;SDS011;22447;44.530;18.620;2022-09-09T13:55:26;7.78;;;3.50;;
36415;SDS011;22447;44.530;18.620;2022-09-09T13:58:00;13.00;;;3.67;;
36415;SDS011;22447;44.530;18.620;2022-09-09T14:00:31;15.75;;;4.40;;
36415;SDS011;22447;44.530;18.620;2022-09-09T14:02:59;10.27;;;3.47;;
36415;SDS011;22447;44.530;18.620;2022-09-09T14:05:27;6.90;;;3.60;;
36415;SDS011;22447;44.530;18.620;2022-09-09T14:07:54;12.95;;;3.85;;
36415;SDS011;22447;44.530;18.620;2022-09-09T14:10:20;10.40;;;4.18;;
36415;SDS011;22447;44.530;18.620;2022-09-09T14:12:47;11.55;;;4.20;;
36415;SDS011;22447;44.530;18.620;2022-09-09T14:15:13;10.43;;;4.35;;
36415;SDS011;22447;44.530;18.620;2022-09-09T14:17:39;8.73;;;4.28;;
36415;SDS011;22447;44.530;18.620;2022-09-09T14:20:06;15.30;;;5.20;;
36415;SDS011;22447;44.530;18.620;2022-09-09T14:22:34;8.55;;;3.85;;
36415;SDS011;22447;44.530;18.620;2022-09-09T14:25:01;4.45;;;2.83;;
36415;SDS011;22447;44.530;18.620;2022-09-09T14:27:28;9.95;;;3.13;;
36415;SDS011;22447;44.530;18.620;2022-09-09T14:29:55;13.88;;;4.57;;
36415;SDS011;22447;44.530;18.620;2022-09-09T14:32:22;14.52;;;4.30;;
36415;SDS011;22447;44.530;18.620;2022-09-09T14:34:48;6.80;;;3.20;;
36415;SDS011;22447;44.530;18.620;2022-09-09T14:37:15;10.35;;;3.67;;
36415;SDS011;22447;44.530;18.620;2022-09-09T14:39:42;11.63;;;4.32;;
36415;SDS011;22447;44.530;18.620;2022-09-09T14:42:09;10.27;;;4.00;;
36415;SDS011;22447;44.530;18.620;2022-09-09T14:44:39;9.45;;;3.10;;
36415;SDS011;22447;44.530;18.620;2022-09-09T14:47:06;16.35;;;3.65;;
36415;SDS011;22447;44.530;18.620;2022-09-09T14:49:35;13.63;;;4.10;;
36415;SDS011;22447;44.530;18.620;2022-09-09T14:52:02;17.85;;;5.25;;
36415;SDS011;22447;44.530;18.620;2022-09-09T14:54:30;8.98;;;4.43;;
36415;SDS011;22447;44.530;18.620;2022-09-09T14:56:57;9.93;;;4.30;;
36415;SDS011;22447;44.530;18.620;2022-09-09T14:59:24;25.35;;;5.63;;
36415;SDS011;22447;44.530;18.620;2022-09-09T15:01:50;13.32;;;4.75;;
36415;SDS011;22447;44.530;18.620;2022-09-09T15:04:16;8.32;;;3.60;;
36415;SDS011;22447;44.530;18.620;2022-09-09T15:06:45;5.33;;;2.90;;
36415;SDS011;22447;44.530;18.620;2022-09-09T15:09:13;7.10;;;4.22;;
36415;SDS011;22447;44.530;18.620;2022-09-09T15:11:40;5.20;;;3.90;;
36415;SDS011;22447;44.530;18.620;2022-09-09T15:14:06;17.38;;;5.93;;
36415;SDS011;22447;44.530;18.620;2022-09-09T15:16:33;24.10;;;7.28;;
36415;SDS011;22447;44.530;18.620;2022-09-09T15:19:00;15.68;;;6.95;;
36415;SDS011;22447;44.530;18.620;2022-09-09T15:21:28;19.10;;;7.45;;
36415;SDS011;22447;44.530;18.620;2022-09-09T15:23:58;19.95;;;7.93;;
36415;SDS011;22447;44.530;18.620;2022-09-09T15:26:25;17.45;;;6.55;;
36415;SDS011;22447;44.530;18.620;2022-09-09T15:28:52;18.00;;;5.25;;
36415;SDS011;22447;44.530;18.620;2022-09-09T15:31:23;18.63;;;5.50;;
36415;SDS011;22447;44.530;18.620;2022-09-09T15:33:51;12.30;;;4.80;;
36415;SDS011;22447;44.530;18.620;2022-09-09T15:38:47;16.58;;;5.43;;
36415;SDS011;22447;44.530;18.620;2022-09-09T15:41:13;12.27;;;5.32;;
36415;SDS011;22447;44.530;18.620;2022-09-09T15:43:47;18.05;;;6.03;;
36415;SDS011;22447;44.530;18.620;2022-09-09T15:51:30;11.93;;;5.55;;
36415;SDS011;22447;44.530;18.620;2022-09-09T15:53:57;11.25;;;5.10;;
36415;SDS011;22447;44.530;18.620;2022-09-09T15:56:24;16.13;;;6.47;;
36415;SDS011;22447;44.530;18.620;2022-09-09T15:58:52;19.90;;;6.88;;
36415;SDS011;22447;44.530;18.620;2022-09-09T16:01:20;13.07;;;5.90;;
36415;SDS011;22447;44.530;18.620;2022-09-09T16:03:47;9.65;;;6.43;;
36415;SDS011;22447;44.530;18.620;2022-09-09T16:06:19;16.33;;;6.70;;
36415;SDS011;22447;44.530;18.620;2022-09-09T16:08:48;12.82;;;6.43;;
36415;SDS011;22447;44.530;18.620;2022-09-09T16:11:16;17.38;;;6.43;;
36415;SDS011;22447;44.530;18.620;2022-09-09T16:13:45;10.43;;;6.07;;
36415;SDS011;22447;44.530;18.620;2022-09-09T16:16:14;25.73;;;6.85;;
36415;SDS011;22447;44.530;18.620;2022-09-09T16:18:42;22.35;;;6.80;;
36415;SDS011;22447;44.530;18.620;2022-09-09T16:21:14;15.45;;;6.00;;
36415;SDS011;22447;44.530;18.620;2022-09-09T16:23:42;13.02;;;6.47;;
36415;SDS011;22447;44.530;18.620;2022-09-09T16:26:12;13.10;;;7.22;;
36415;SDS011;22447;44.530;18.620;2022-09-09T16:28:39;18.40;;;9.43;;
36415;SDS011;22447;44.530;18.620;2022-09-09T16:31:06;17.63;;;9.07;;
36415;SDS011;22447;44.530;18.620;2022-09-09T16:33:35;16.70;;;8.93;;
36415;SDS011;22447;44.530;18.620;2022-09-09T16:36:08;18.95;;;9.23;;
36415;SDS011;22447;44.530;18.620;2022-09-09T16:38:35;18.55;;;9.98;;
36415;SDS011;22447;44.530;18.620;2022-09-09T16:41:02;16.98;;;9.38;;
36415;SDS011;22447;44.530;18.620;2022-09-09T16:43:34;18.38;;;9.18;;
36415;SDS011;22447;44.530;18.620;2022-09-09T16:46:13;21.60;;;9.40;;
36415;SDS011;22447;44.530;18.620;2022-09-09T16:48:42;12.32;;;6.35;;
36415;SDS011;22447;44.530;18.620;2022-09-09T16:51:12;9.25;;;5.00;;
36415;SDS011;22447;44.530;18.620;2022-09-09T16:53:42;9.18;;;5.43;;
36415;SDS011;22447;44.530;18.620;2022-09-09T16:56:09;9.65;;;4.70;;
36415;SDS011;22447;44.530;18.620;2022-09-09T16:58:37;8.68;;;4.70;;
36415;SDS011;22447;44.530;18.620;2022-09-09T17:01:03;9.05;;;4.68;;
36415;SDS011;22447;44.530;18.620;2022-09-09T17:03:30;8.45;;;4.63;;
36415;SDS011;22447;44.530;18.620;2022-09-09T17:05:57;7.97;;;3.83;;
36415;SDS011;22447;44.530;18.620;2022-09-09T17:08:28;8.27;;;4.45;;
36415;SDS011;22447;44.530;18.620;2022-09-09T17:10:58;9.02;;;3.92;;
36415;SDS011;22447;44.530;18.620;2022-09-09T17:13:25;18.45;;;4.53;;
36415;SDS011;22447;44.530;18.620;2022-09-09T17:15:51;22.48;;;4.00;;
36415;SDS011;22447;44.530;18.620;2022-09-09T17:18:17;8.70;;;3.30;;
36415;SDS011;22447;44.530;18.620;2022-09-09T17:20:43;4.07;;;2.80;;
36415;SDS011;22447;44.530;18.620;2022-09-09T17:23:10;7.60;;;3.85;;
36415;SDS011;22447;44.530;18.620;2022-09-09T17:25:40;7.75;;;3.03;;
36415;SDS011;22447;44.530;18.620;2022-09-09T17:28:07;6.22;;;3.70;;
36415;SDS011;22447;44.530;18.620;2022-09-09T17:30:33;6.55;;;3.28;;
36415;SDS011;22447;44.530;18.620;2022-09-09T17:33:00;7.03;;;3.25;;
36415;SDS011;22447;44.530;18.620;2022-09-09T17:35:26;6.05;;;3.53;;